sensor_id;sensor_type;location;lat;lon;timestamp;P1;durP1;ratioP1;P2;durP2;ratioP2
21675;SDS011;10999;51.332;9.458;2023-05-10T00:01:18;11.45;;;5.57;;
21675;SDS011;10999;51.332;9.458;2023-05-10T00:03:44;12.02;;;6.20;;
21675;SDS011;10999;51.332;9.458;2023-05-10T00:06:11;10.93;;;5.30;;
21675;SDS011;10999;51.332;9.458;2023-05-10T00:08:38;10.45;;;5.05;;
21675;SDS011;10999;51.332;9.458;2023-05-10T00:11:05;11.20;;;5.95;;
21675;SDS011;10999;51.332;9.458;2023-05-10T00:13:31;10.75;;;5.38;;
21675;SDS011;10999;51.332;9.458;2023-05-10T00:15:58;11.95;;;6.43;;
21675;SDS011;10999;51.332;9.458;2023-05-10T00:18:25;11.93;;;6.75;;
21675;SDS011;10999;51.332;9.458;2023-05-10T00:20:52;13.23;;;6.90;;
21675;SDS011;10999;51.332;9.458;2023-05-10T00:23:18;11.02;;;5.65;;
21675;SDS011;10999;51.332;9.458;2023-05-10T00:25:45;11.18;;;5.43;;
21675;SDS011;10999;51.332;9.458;2023-05-10T00:28:12;12.30;;;6.95;;
21675;SDS011;10999;51.332;9.458;2023-05-10T00:30:38;11.98;;;6.47;;
21675;SDS011;10999;51.332;9.458;2023-05-10T00:33:05;10.63;;;5.75;;
21675;SDS011;10999;51.332;9.458;2023-05-10T00:35:32;11.93;;;6.53;;
21675;SDS011;10999;51.332;9.458;2023-05-10T00:37:59;13.85;;;6.78;;
21675;SDS011;10999;51.332;9.458;2023-05-10T00:40:25;11.75;;;6.25;;
21675;SDS011;10999;51.332;9.458;2023-05-10T00:42:52;12.95;;;6.93;;
21675;SDS011;10999;51.332;9.458;2023-05-10T00:45:19;12.38;;;6.68;;
21675;SDS011;10999;51.332;9.458;2023-05-10T00:47:46;13.98;;;7.18;;
21675;SDS011;10999;51.332;9.458;2023-05-10T00:50:13;12.50;;;6.70;;
21675;SDS011;10999;51.332;9.458;2023-05-10T00:52:41;13.30;;;7.10;;
21675;SDS011;10999;51.332;9.458;2023-05-10T00:55:09;13.77;;;7.20;;
21675;SDS011;10999;51.332;9.458;2023-05-10T00:57:38;14.45;;;7.53;;
21675;SDS011;10999;51.332;9.458;2023-05-10T01:00:05;14.05;;;7.57;;
21675;SDS011;10999;51.332;9.458;2023-05-10T01:02:33;14.30;;;7.82;;
21675;SDS011;10999;51.332;9.458;2023-05-10T01:05:01;13.85;;;7.72;;
21675;SDS011;10999;51.332;9.458;2023-05-10T01:07:29;13.93;;;7.13;;
21675;SDS011;10999;51.332;9.458;2023-05-10T01:09:56;15.18;;;7.65;;
21675;SDS011;10999;51.332;9.458;2023-05-10T01:12:23;13.82;;;7.32;;
21675;SDS011;10999;51.332;9.458;2023-05-10T01:14:51;13.85;;;7.55;;
21675;SDS011;10999;51.332;9.458;2023-05-10T01:17:18;14.88;;;7.88;;
21675;SDS011;10999;51.332;9.458;2023-05-10T01:19:45;13.57;;;7.65;;
21675;SDS011;10999;51.332;9.458;2023-05-10T01:22:26;13.50;;;7.60;;
21675;SDS011;10999;51.332;9.458;2023-05-10T01:28:08;14.32;;;6.85;;
21675;SDS011;10999;51.332;9.458;2023-05-10T01:39:01;12.13;;;6.68;;
21675;SDS011;10999;51.332;9.458;2023-05-10T01:41:45;10.80;;;5.97;;
21675;SDS011;10999;51.332;9.458;2023-05-10T01:47:03;11.80;;;6.40;;
21675;SDS011;10999;51.332;9.458;2023-05-10T01:49:45;9.45;;;4.63;;
21675;SDS011;10999;51.332;9.458;2023-05-10T01:52:17;11.80;;;4.47;;
21675;SDS011;10999;51.332;9.458;2023-05-10T01:54:50;10.82;;;4.90;;
21675;SDS011;10999;51.332;9.458;2023-05-10T01:57:22;8.27;;;4.03;;
21675;SDS011;10999;51.332;9.458;2023-05-10T01:59:52;9.35;;;4.50;;
21675;SDS011;10999;51.332;9.458;2023-05-10T02:02:21;8.68;;;4.05;;
21675;SDS011;10999;51.332;9.458;2023-05-10T02:04:50;7.95;;;3.40;;
21675;SDS011;10999;51.332;9.458;2023-05-10T02:07:17;6.97;;;3.58;;
21675;SDS011;10999;51.332;9.458;2023-05-10T02:09:45;7.00;;;3.45;;
21675;SDS011;10999;51.332;9.458;2023-05-10T02:12:14;7.65;;;3.40;;
21675;SDS011;10999;51.332;9.458;2023-05-10T02:14:42;7.07;;;3.20;;
21675;SDS011;10999;51.332;9.458;2023-05-10T02:17:10;8.98;;;3.85;;
21675;SDS011;10999;51.332;9.458;2023-05-10T02:19:39;7.50;;;2.83;;
21675;SDS011;10999;51.332;9.458;2023-05-10T02:22:07;7.10;;;3.20;;
21675;SDS011;10999;51.332;9.458;2023-05-10T02:24:35;6.85;;;3.28;;
21675;SDS011;10999;51.332;9.458;2023-05-10T02:27:03;6.75;;;3.00;;
21675;SDS011;10999;51.332;9.458;2023-05-10T02:29:31;8.75;;;3.45;;
21675;SDS011;10999;51.332;9.458;2023-05-10T02:31:59;6.57;;;3.05;;
21675;SDS011;10999;51.332;9.458;2023-05-10T02:34:27;7.53;;;3.00;;
21675;SDS011;10999;51.332;9.458;2023-05-10T02:36:54;7.03;;;3.20;;
21675;SDS011;10999;51.332;9.458;2023-05-10T02:39:22;6.20;;;2.67;;
21675;SDS011;10999;51.332;9.458;2023-05-10T02:41:50;7.60;;;2.88;;
21675;SDS011;10999;51.332;9.458;2023-05-10T02:44:18;6.75;;;2.53;;
21675;SDS011;10999;51.332;9.458;2023-05-10T02:46:46;5.70;;;2.47;;
21675;SDS011;10999;51.332;9.458;2023-05-10T02:49:14;7.20;;;3.08;;
21675;SDS011;10999;51.332;9.458;2023-05-10T08:05:26;1.17;;;0.38;;
21675;SDS011;10999;51.332;9.458;2023-05-10T08:07:52;1.60;;;0.40;;
21675;SDS011;10999;51.332;9.458;2023-05-10T08:10:19;1.27;;;0.40;;
21675;SDS011;10999;51.332;9.458;2023-05-10T08:12:46;3.50;;;0.60;;
21675;SDS011;10999;51.332;9.458;2023-05-10T08:15:13;2.65;;;0.40;;
21675;SDS011;10999;51.332;9.458;2023-05-10T08:17:39;1.27;;;0.50;;
21675;SDS011;10999;51.332;9.458;2023-05-10T08:20:06;0.77;;;0.40;;
21675;SDS011;10999;51.332;9.458;2023-05-10T08:22:34;2.13;;;0.50;;
21675;SDS011;10999;51.332;9.458;2023-05-10T08:25:00;0.73;;;0.40;;
21675;SDS011;10999;51.332;9.458;2023-05-10T08:27:27;1.58;;;0.40;;
21675;SDS011;10999;51.332;9.458;2023-05-10T08:29:54;1.70;;;0.40;;
21675;SDS011;10999;51.332;9.458;2023-05-10T08:32:20;2.67;;;0.75;;
21675;SDS011;10999;51.332;9.458;2023-05-10T08:34:47;1.70;;;0.40;;
21675;SDS011;10999;51.332;9.458;2023-05-10T08:37:14;3.72;;;0.80;;
21675;SDS011;10999;51.332;9.458;2023-05-10T08:39:41;3.08;;;0.90;;
21675;SDS011;10999;51.332;9.458;2023-05-10T08:42:07;3.00;;;0.80;;
21675;SDS011;10999;51.332;9.458;2023-05-10T08:44:36;3.50;;;0.90;;
21675;SDS011;10999;51.332;9.458;2023-05-10T08:47:06;2.47;;;0.82;;
21675;SDS011;10999;51.332;9.458;2023-05-10T08:49:34;1.50;;;0.60;;
21675;SDS011;10999;51.332;9.458;2023-05-10T08:52:03;2.45;;;0.90;;
21675;SDS011;10999;51.332;9.458;2023-05-10T08:54:32;2.10;;;0.80;;
21675;SDS011;10999;51.332;9.458;2023-05-10T08:56:59;3.00;;;1.02;;
21675;SDS011;10999;51.332;9.458;2023-05-10T08:59:27;3.03;;;1.00;;
21675;SDS011;10999;51.332;9.458;2023-05-10T09:01:55;4.05;;;1.17;;
21675;SDS011;10999;51.332;9.458;2023-05-10T09:04:26;2.33;;;0.77;;
21675;SDS011;10999;51.332;9.458;2023-05-10T09:06:54;3.00;;;1.30;;
21675;SDS011;10999;51.332;9.458;2023-05-10T09:09:21;3.03;;;0.90;;
21675;SDS011;10999;51.332;9.458;2023-05-10T09:11:49;3.70;;;1.10;;
21675;SDS011;10999;51.332;9.458;2023-05-10T09:14:15;2.88;;;0.90;;
21675;SDS011;10999;51.332;9.458;2023-05-10T09:16:43;3.63;;;1.20;;
21675;SDS011;10999;51.332;9.458;2023-05-10T09:19:10;2.72;;;1.25;;
21675;SDS011;10999;51.332;9.458;2023-05-10T09:21:37;3.97;;;1.27;;
21675;SDS011;10999;51.332;9.458;2023-05-10T09:24:07;5.28;;;1.60;;
21675;SDS011;10999;51.332;9.458;2023-05-10T09:26:35;4.57;;;1.25;;
21675;SDS011;10999;51.332;9.458;2023-05-10T09:29:11;3.42;;;1.30;;
21675;SDS011;10999;51.332;9.458;2023-05-10T09:31:50;5.30;;;1.42;;
21675;SDS011;10999;51.332;9.458;2023-05-10T09:34:18;4.05;;;1.55;;
21675;SDS011;10999;51.332;9.458;2023-05-10T09:36:50;4.38;;;1.65;;
21675;SDS011;10999;51.332;9.458;2023-05-10T09:39:18;4.00;;;1.70;;
21675;SDS011;10999;51.332;9.458;2023-05-10T09:41:45;3.70;;;1.08;;
21675;SDS011;10999;51.332;9.458;2023-05-10T09:44:16;5.43;;;1.40;;
21675;SDS011;10999;51.332;9.458;2023-05-10T09:46:48;3.10;;;0.93;;
21675;SDS011;10999;51.332;9.458;2023-05-10T09:51:43;3.05;;;1.23;;
21675;SDS011;10999;51.332;9.458;2023-05-10T09:54:14;3.50;;;1.30;;
21675;SDS011;10999;51.332;9.458;2023-05-10T09:56:42;3.33;;;1.27;;
21675;SDS011;10999;51.332;9.458;2023-05-10T09:59:10;4.05;;;1.23;;
21675;SDS011;10999;51.332;9.458;2023-05-10T10:01:38;2.45;;;0.85;;
21675;SDS011;10999;51.332;9.458;2023-05-10T10:04:06;3.42;;;0.95;;
21675;SDS011;10999;51.332;9.458;2023-05-10T10:06:39;6.03;;;1.58;;
21675;SDS011;10999;51.332;9.458;2023-05-10T10:09:06;4.32;;;1.40;;
21675;SDS011;10999;51.332;9.458;2023-05-10T10:11:34;4.20;;;1.35;;
21675;SDS011;10999;51.332;9.458;2023-05-10T10:14:02;5.03;;;1.65;;
21675;SDS011;10999;51.332;9.458;2023-05-10T10:16:29;4.22;;;1.40;;
21675;SDS011;10999;51.332;9.458;2023-05-10T10:18:57;4.97;;;1.40;;
21675;SDS011;10999;51.332;9.458;2023-05-10T10:21:24;4.30;;;1.40;;
21675;SDS011;10999;51.332;9.458;2023-05-10T10:23:51;4.60;;;1.50;;
21675;SDS011;10999;51.332;9.458;2023-05-10T10:26:19;3.40;;;1.20;;
21675;SDS011;10999;51.332;9.458;2023-05-10T10:29:34;4.25;;;1.75;;
21675;SDS011;10999;51.332;9.458;2023-05-10T10:32:03;4.15;;;1.50;;
21675;SDS011;10999;51.332;9.458;2023-05-10T10:34:44;5.90;;;1.60;;
21675;SDS011;10999;51.332;9.458;2023-05-10T10:37:11;5.45;;;2.15;;
21675;SDS011;10999;51.332;9.458;2023-05-10T10:39:38;5.43;;;1.95;;
21675;SDS011;10999;51.332;9.458;2023-05-10T10:42:05;5.80;;;1.88;;
21675;SDS011;10999;51.332;9.458;2023-05-10T10:52:27;5.57;;;2.13;;
21675;SDS011;10999;51.332;9.458;2023-05-10T10:55:06;6.07;;;2.00;;
21675;SDS011;10999;51.332;9.458;2023-05-10T10:57:54;6.30;;;2.38;;
21675;SDS011;10999;51.332;9.458;2023-05-10T11:00:31;7.32;;;2.60;;
21675;SDS011;10999;51.332;9.458;2023-05-10T11:13:37;5.60;;;2.30;;
21675;SDS011;10999;51.332;9.458;2023-05-10T11:18:37;7.97;;;2.88;;
21675;SDS011;10999;51.332;9.458;2023-05-10T11:21:04;6.60;;;2.40;;
21675;SDS011;10999;51.332;9.458;2023-05-10T11:23:32;5.93;;;2.47;;
21675;SDS011;10999;51.332;9.458;2023-05-10T11:26:13;6.10;;;2.40;;
21675;SDS011;10999;51.332;9.458;2023-05-10T11:28:47;5.90;;;2.33;;
21675;SDS011;10999;51.332;9.458;2023-05-10T11:31:15;6.65;;;2.35;;
21675;SDS011;10999;51.332;9.458;2023-05-10T11:33:47;6.47;;;2.38;;
21675;SDS011;10999;51.332;9.458;2023-05-10T11:36:23;6.28;;;2.45;;
21675;SDS011;10999;51.332;9.458;2023-05-10T11:38:49;6.03;;;2.28;;
21675;SDS011;10999;51.332;9.458;2023-05-10T11:41:16;6.38;;;2.42;;
21675;SDS011;10999;51.332;9.458;2023-05-10T11:43:51;5.57;;;1.98;;
21675;SDS011;10999;51.332;9.458;2023-05-10T11:46:20;7.45;;;2.67;;
21675;SDS011;10999;51.332;9.458;2023-05-10T11:48:50;4.90;;;2.05;;
21675;SDS011;10999;51.332;9.458;2023-05-10T11:51:22;6.78;;;2.55;;
21675;SDS011;10999;51.332;9.458;2023-05-10T11:53:52;7.20;;;2.83;;
21675;SDS011;10999;51.332;9.458;2023-05-10T11:56:19;7.57;;;2.63;;
21675;SDS011;10999;51.332;9.458;2023-05-10T11:58:52;7.55;;;2.45;;
21675;SDS011;10999;51.332;9.458;2023-05-10T12:01:20;7.05;;;2.53;;
21675;SDS011;10999;51.332;9.458;2023-05-10T12:03:48;7.68;;;2.90;;
21675;SDS011;10999;51.332;9.458;2023-05-10T12:06:17;7.75;;;2.38;;
21675;SDS011;10999;51.332;9.458;2023-05-10T12:08:45;8.65;;;3.90;;
21675;SDS011;10999;51.332;9.458;2023-05-10T12:11:13;6.10;;;2.97;;
21675;SDS011;10999;51.332;9.458;2023-05-10T12:13:42;6.75;;;2.47;;
21675;SDS011;10999;51.332;9.458;2023-05-10T12:16:13;8.02;;;2.80;;
21675;SDS011;10999;51.332;9.458;2023-05-10T12:18:48;7.68;;;2.35;;
21675;SDS011;10999;51.332;9.458;2023-05-10T12:21:15;7.40;;;2.60;;
21675;SDS011;10999;51.332;9.458;2023-05-10T12:23:42;8.38;;;3.25;;
21675;SDS011;10999;51.332;9.458;2023-05-10T12:26:11;7.05;;;2.95;;
21675;SDS011;10999;51.332;9.458;2023-05-10T12:28:38;7.82;;;3.13;;
21675;SDS011;10999;51.332;9.458;2023-05-10T12:31:05;6.55;;;2.80;;
21675;SDS011;10999;51.332;9.458;2023-05-10T12:33:36;6.97;;;2.75;;
21675;SDS011;10999;51.332;9.458;2023-05-10T12:36:15;9.32;;;2.60;;
21675;SDS011;10999;51.332;9.458;2023-05-10T12:38:43;7.50;;;2.30;;
21675;SDS011;10999;51.332;9.458;2023-05-10T12:41:14;8.13;;;2.88;;
21675;SDS011;10999;51.332;9.458;2023-05-10T12:43:43;5.82;;;2.10;;
21675;SDS011;10999;51.332;9.458;2023-05-10T12:46:10;7.03;;;2.25;;
21675;SDS011;10999;51.332;9.458;2023-05-10T12:48:39;8.77;;;2.13;;
21675;SDS011;10999;51.332;9.458;2023-05-10T12:51:07;7.72;;;3.55;;
21675;SDS011;10999;51.332;9.458;2023-05-10T12:53:35;9.00;;;2.53;;
21675;SDS011;10999;51.332;9.458;2023-05-10T12:56:02;8.70;;;2.70;;
21675;SDS011;10999;51.332;9.458;2023-05-10T12:58:29;7.78;;;2.97;;
21675;SDS011;10999;51.332;9.458;2023-05-10T13:01:01;10.82;;;2.58;;
21675;SDS011;10999;51.332;9.458;2023-05-10T13:03:28;8.43;;;2.50;;
21675;SDS011;10999;51.332;9.458;2023-05-10T13:05:55;6.95;;;2.50;;
21675;SDS011;10999;51.332;9.458;2023-05-10T13:08:22;6.85;;;2.42;;
21675;SDS011;10999;51.332;9.458;2023-05-10T13:10:49;7.35;;;2.58;;
21675;SDS011;10999;51.332;9.458;2023-05-10T13:13:15;7.80;;;2.35;;
21675;SDS011;10999;51.332;9.458;2023-05-10T13:15:42;7.03;;;2.40;;
21675;SDS011;10999;51.332;9.458;2023-05-10T13:18:09;7.13;;;2.50;;
21675;SDS011;10999;51.332;9.458;2023-05-10T13:20:36;8.98;;;3.13;;
21675;SDS011;10999;51.332;9.458;2023-05-10T13:23:03;8.05;;;2.75;;
21675;SDS011;10999;51.332;9.458;2023-05-10T13:25:29;7.18;;;2.70;;
21675;SDS011;10999;51.332;9.458;2023-05-10T13:27:56;7.93;;;2.35;;
21675;SDS011;10999;51.332;9.458;2023-05-10T13:30:23;5.60;;;1.70;;
21675;SDS011;10999;51.332;9.458;2023-05-10T13:32:50;6.60;;;1.95;;
21675;SDS011;10999;51.332;9.458;2023-05-10T13:35:17;5.70;;;2.10;;
21675;SDS011;10999;51.332;9.458;2023-05-10T13:37:44;4.00;;;1.30;;
21675;SDS011;10999;51.332;9.458;2023-05-10T13:40:10;4.63;;;1.60;;
21675;SDS011;10999;51.332;9.458;2023-05-10T13:42:37;5.13;;;1.83;;
21675;SDS011;10999;51.332;9.458;2023-05-10T13:45:08;5.88;;;1.83;;
21675;SDS011;10999;51.332;9.458;2023-05-10T13:47:35;7.57;;;1.98;;
21675;SDS011;10999;51.332;9.458;2023-05-10T13:50:02;6.43;;;1.80;;
21675;SDS011;10999;51.332;9.458;2023-05-10T13:52:29;6.00;;;2.28;;
21675;SDS011;10999;51.332;9.458;2023-05-10T13:54:56;4.82;;;1.85;;
21675;SDS011;10999;51.332;9.458;2023-05-10T13:57:23;5.97;;;1.90;;
21675;SDS011;10999;51.332;9.458;2023-05-10T13:59:50;5.53;;;2.00;;
21675;SDS011;10999;51.332;9.458;2023-05-10T14:02:17;6.28;;;1.88;;
21675;SDS011;10999;51.332;9.458;2023-05-10T14:04:44;6.85;;;2.05;;
21675;SDS011;10999;51.332;9.458;2023-05-10T14:07:11;6.65;;;2.00;;
21675;SDS011;10999;51.332;9.458;2023-05-10T14:09:37;7.47;;;1.90;;
21675;SDS011;10999;51.332;9.458;2023-05-10T14:12:04;6.60;;;2.20;;
21675;SDS011;10999;51.332;9.458;2023-05-10T14:14:31;6.60;;;2.35;;
21675;SDS011;10999;51.332;9.458;2023-05-10T14:16:58;6.10;;;1.92;;
21675;SDS011;10999;51.332;9.458;2023-05-10T14:19:25;6.55;;;2.70;;
21675;SDS011;10999;51.332;9.458;2023-05-10T14:21:53;6.80;;;2.10;;
21675;SDS011;10999;51.332;9.458;2023-05-10T14:24:20;6.45;;;2.63;;
21675;SDS011;10999;51.332;9.458;2023-05-10T14:26:46;6.38;;;2.58;;
21675;SDS011;10999;51.332;9.458;2023-05-10T14:29:13;7.53;;;2.30;;
21675;SDS011;10999;51.332;9.458;2023-05-10T14:31:40;7.88;;;2.45;;
21675;SDS011;10999;51.332;9.458;2023-05-10T14:34:06;7.93;;;2.13;;
21675;SDS011;10999;51.332;9.458;2023-05-10T14:36:33;5.30;;;1.60;;
21675;SDS011;10999;51.332;9.458;2023-05-10T14:39:00;6.22;;;2.33;;
21675;SDS011;10999;51.332;9.458;2023-05-10T14:41:27;7.63;;;2.30;;
21675;SDS011;10999;51.332;9.458;2023-05-10T14:43:53;6.32;;;2.30;;
21675;SDS011;10999;51.332;9.458;2023-05-10T14:46:20;7.90;;;2.55;;
21675;SDS011;10999;51.332;9.458;2023-05-10T14:48:47;8.60;;;2.63;;
21675;SDS011;10999;51.332;9.458;2023-05-10T14:51:13;8.10;;;2.55;;
21675;SDS011;10999;51.332;9.458;2023-05-10T14:53:40;10.20;;;3.20;;
21675;SDS011;10999;51.332;9.458;2023-05-10T14:56:07;8.10;;;2.70;;
21675;SDS011;10999;51.332;9.458;2023-05-10T14:58:33;7.32;;;2.83;;
21675;SDS011;10999;51.332;9.458;2023-05-10T15:01:00;10.18;;;3.13;;
21675;SDS011;10999;51.332;9.458;2023-05-10T15:03:27;8.93;;;2.78;;
21675;SDS011;10999;51.332;9.458;2023-05-10T15:05:55;7.68;;;2.92;;
21675;SDS011;10999;51.332;9.458;2023-05-10T15:08:23;7.68;;;2.80;;
21675;SDS011;10999;51.332;9.458;2023-05-10T15:10:53;9.00;;;2.67;;
21675;SDS011;10999;51.332;9.458;2023-05-10T15:13:22;8.93;;;2.70;;
21675;SDS011;10999;51.332;9.458;2023-05-10T15:15:48;8.93;;;3.65;;
21675;SDS011;10999;51.332;9.458;2023-05-10T15:18:15;9.07;;;2.90;;
21675;SDS011;10999;51.332;9.458;2023-05-10T15:20:43;8.48;;;2.78;;
21675;SDS011;10999;51.332;9.458;2023-05-10T15:23:09;9.80;;;2.83;;
21675;SDS011;10999;51.332;9.458;2023-05-10T15:25:36;10.50;;;2.75;;
21675;SDS011;10999;51.332;9.458;2023-05-10T15:28:03;8.15;;;2.83;;
21675;SDS011;10999;51.332;9.458;2023-05-10T15:30:31;7.30;;;2.90;;
21675;SDS011;10999;51.332;9.458;2023-05-10T15:32:57;7.82;;;3.08;;
21675;SDS011;10999;51.332;9.458;2023-05-10T15:35:25;7.70;;;2.63;;
21675;SDS011;10999;51.332;9.458;2023-05-10T15:37:52;7.53;;;2.65;;
21675;SDS011;10999;51.332;9.458;2023-05-10T15:40:19;8.57;;;3.38;;
21675;SDS011;10999;51.332;9.458;2023-05-10T15:42:46;10.50;;;2.85;;
21675;SDS011;10999;51.332;9.458;2023-05-10T15:45:13;7.53;;;2.88;;
21675;SDS011;10999;51.332;9.458;2023-05-10T15:47:41;8.45;;;2.80;;
21675;SDS011;10999;51.332;9.458;2023-05-10T15:50:08;8.68;;;3.30;;
21675;SDS011;10999;51.332;9.458;2023-05-10T15:52:36;7.35;;;2.67;;
21675;SDS011;10999;51.332;9.458;2023-05-10T15:55:03;8.02;;;2.47;;
21675;SDS011;10999;51.332;9.458;2023-05-10T15:57:38;8.20;;;2.65;;
21675;SDS011;10999;51.332;9.458;2023-05-10T16:00:06;5.57;;;2.20;;
21675;SDS011;10999;51.332;9.458;2023-05-10T16:02:34;7.22;;;2.47;;
21675;SDS011;10999;51.332;9.458;2023-05-10T16:05:01;6.80;;;2.45;;
21675;SDS011;10999;51.332;9.458;2023-05-10T16:07:28;7.03;;;2.60;;
21675;SDS011;10999;51.332;9.458;2023-05-10T16:09:55;6.05;;;2.03;;
21675;SDS011;10999;51.332;9.458;2023-05-10T16:12:22;6.53;;;2.33;;
21675;SDS011;10999;51.332;9.458;2023-05-10T16:14:48;7.55;;;2.60;;
21675;SDS011;10999;51.332;9.458;2023-05-10T16:17:15;6.57;;;2.25;;
21675;SDS011;10999;51.332;9.458;2023-05-10T16:19:42;6.43;;;2.53;;
21675;SDS011;10999;51.332;9.458;2023-05-10T16:22:09;5.72;;;2.30;;
21675;SDS011;10999;51.332;9.458;2023-05-10T16:24:36;6.18;;;2.47;;
21675;SDS011;10999;51.332;9.458;2023-05-10T16:27:02;6.38;;;2.38;;
21675;SDS011;10999;51.332;9.458;2023-05-10T16:29:29;7.18;;;2.00;;
21675;SDS011;10999;51.332;9.458;2023-05-10T16:31:57;6.22;;;2.15;;
21675;SDS011;10999;51.332;9.458;2023-05-10T16:34:23;8.27;;;2.60;;
21675;SDS011;10999;51.332;9.458;2023-05-10T16:36:51;7.68;;;2.72;;
21675;SDS011;10999;51.332;9.458;2023-05-10T16:39:17;6.25;;;2.33;;
21675;SDS011;10999;51.332;9.458;2023-05-10T16:41:44;6.72;;;2.40;;
21675;SDS011;10999;51.332;9.458;2023-05-10T16:44:11;8.95;;;2.60;;
21675;SDS011;10999;51.332;9.458;2023-05-10T16:46:38;4.72;;;1.50;;
21675;SDS011;10999;51.332;9.458;2023-05-10T16:49:05;7.00;;;2.28;;
21675;SDS011;10999;51.332;9.458;2023-05-10T16:51:32;8.25;;;2.45;;
21675;SDS011;10999;51.332;9.458;2023-05-10T16:53:58;7.10;;;2.58;;
21675;SDS011;10999;51.332;9.458;2023-05-10T16:56:25;6.38;;;2.22;;
21675;SDS011;10999;51.332;9.458;2023-05-10T16:58:52;7.00;;;2.35;;
21675;SDS011;10999;51.332;9.458;2023-05-10T17:01:19;5.55;;;2.05;;
21675;SDS011;10999;51.332;9.458;2023-05-10T17:03:47;8.57;;;2.80;;
21675;SDS011;10999;51.332;9.458;2023-05-10T17:06:13;7.32;;;2.75;;
21675;SDS011;10999;51.332;9.458;2023-05-10T17:08:41;6.63;;;2.80;;
21675;SDS011;10999;51.332;9.458;2023-05-10T17:11:08;7.35;;;2.53;;
21675;SDS011;10999;51.332;9.458;2023-05-10T17:13:35;6.55;;;2.55;;
21675;SDS011;10999;51.332;9.458;2023-05-10T17:16:01;8.90;;;2.92;;
21675;SDS011;10999;51.332;9.458;2023-05-10T17:18:29;6.72;;;2.10;;
21675;SDS011;10999;51.332;9.458;2023-05-10T17:20:55;6.20;;;2.28;;
21675;SDS011;10999;51.332;9.458;2023-05-10T17:23:22;5.68;;;2.42;;
21675;SDS011;10999;51.332;9.458;2023-05-10T17:25:49;6.32;;;2.33;;
21675;SDS011;10999;51.332;9.458;2023-05-10T17:28:16;6.72;;;2.58;;
21675;SDS011;10999;51.332;9.458;2023-05-10T17:30:43;7.05;;;2.42;;
21675;SDS011;10999;51.332;9.458;2023-05-10T17:33:09;7.00;;;2.15;;
21675;SDS011;10999;51.332;9.458;2023-05-10T17:35:36;5.53;;;2.50;;
21675;SDS011;10999;51.332;9.458;2023-05-10T17:38:03;7.03;;;3.00;;
21675;SDS011;10999;51.332;9.458;2023-05-10T17:40:29;6.72;;;2.20;;
21675;SDS011;10999;51.332;9.458;2023-05-10T17:42:57;7.78;;;2.30;;
21675;SDS011;10999;51.332;9.458;2023-05-10T17:45:23;7.68;;;3.22;;
21675;SDS011;10999;51.332;9.458;2023-05-10T17:47:51;9.18;;;3.38;;
21675;SDS011;10999;51.332;9.458;2023-05-10T17:50:18;10.73;;;3.90;;
21675;SDS011;10999;51.332;9.458;2023-05-10T17:52:45;8.55;;;3.75;;
21675;SDS011;10999;51.332;9.458;2023-05-10T17:55:11;10.75;;;3.95;;
21675;SDS011;10999;51.332;9.458;2023-05-10T17:57:38;9.40;;;4.00;;
21675;SDS011;10999;51.332;9.458;2023-05-10T18:00:05;8.85;;;3.20;;
21675;SDS011;10999;51.332;9.458;2023-05-10T18:02:34;7.50;;;3.20;;
21675;SDS011;10999;51.332;9.458;2023-05-10T18:05:02;9.70;;;4.15;;
21675;SDS011;10999;51.332;9.458;2023-05-10T18:07:29;8.25;;;3.35;;
21675;SDS011;10999;51.332;9.458;2023-05-10T18:09:56;10.63;;;4.35;;
21675;SDS011;10999;51.332;9.458;2023-05-10T18:12:23;10.80;;;4.55;;
21675;SDS011;10999;51.332;9.458;2023-05-10T18:14:50;11.65;;;4.70;;
21675;SDS011;10999;51.332;9.458;2023-05-10T18:17:17;10.75;;;4.45;;
21675;SDS011;10999;51.332;9.458;2023-05-10T18:19:44;9.10;;;3.97;;
21675;SDS011;10999;51.332;9.458;2023-05-10T18:22:11;8.43;;;3.85;;
21675;SDS011;10999;51.332;9.458;2023-05-10T18:24:37;9.35;;;4.30;;
21675;SDS011;10999;51.332;9.458;2023-05-10T18:27:06;8.00;;;3.30;;
21675;SDS011;10999;51.332;9.458;2023-05-10T18:29:34;9.75;;;4.45;;
21675;SDS011;10999;51.332;9.458;2023-05-10T18:32:01;7.75;;;3.28;;
21675;SDS011;10999;51.332;9.458;2023-05-10T18:34:28;10.77;;;4.57;;
21675;SDS011;10999;51.332;9.458;2023-05-10T18:36:55;11.65;;;4.50;;
21675;SDS011;10999;51.332;9.458;2023-05-10T18:39:22;12.95;;;4.72;;
21675;SDS011;10999;51.332;9.458;2023-05-10T18:41:50;11.80;;;4.80;;
21675;SDS011;10999;51.332;9.458;2023-05-10T18:44:17;11.05;;;4.85;;
21675;SDS011;10999;51.332;9.458;2023-05-10T18:46:44;8.88;;;3.63;;
21675;SDS011;10999;51.332;9.458;2023-05-10T18:49:11;9.23;;;4.07;;
21675;SDS011;10999;51.332;9.458;2023-05-10T18:51:38;12.13;;;4.28;;
21675;SDS011;10999;51.332;9.458;2023-05-10T18:54:05;11.05;;;3.83;;
21675;SDS011;10999;51.332;9.458;2023-05-10T18:56:32;9.07;;;3.60;;
21675;SDS011;10999;51.332;9.458;2023-05-10T18:58:59;9.30;;;3.70;;
21675;SDS011;10999;51.332;9.458;2023-05-10T19:01:26;9.88;;;3.78;;
21675;SDS011;10999;51.332;9.458;2023-05-10T19:03:54;10.70;;;3.95;;
21675;SDS011;10999;51.332;9.458;2023-05-10T19:07:34;9.80;;;3.28;;
